North Fork, Nevada
Current Conditions -  °F | °C
As of 7:26 AM on Monday 22 Dec 2014 (Local Time) from KEKO Reporting Station
Overcast Overcast  
Wind Chill: 36°   Ceiling: 3800
Heat Index: 44°   Visibility: 9mi
Dew Point: 40°   Wind: 18mph
Humidity: 85%   Direction: 260°W
Pressure: 30.09"   Gusts: NA
Location:  40.8005°N, 115.707°W
Report Text: KEKO 221526Z AUTO 26016KT 9SM FEW031 BKN038 OVC070 07/04 A3009 RMK AO2 T00670044
Loading
Personal Weather Stations






























Interactive Weather Map New forecast layout! Learn more

10-Day Weather Forecast

Advertisements
Track Severe Weather on mobile